createdAt,value
2023-03-27T00:00:20.333Z,6.70
2023-03-27T00:00:56.771Z,6.70
2023-03-27T00:01:30.431Z,6.70
2023-03-27T00:02:02.525Z,6.70
2023-03-27T00:02:35.492Z,6.60
2023-03-27T00:03:08.302Z,6.60
2023-03-27T00:03:40.800Z,6.60
2023-03-27T00:04:17.927Z,6.70
2023-03-27T00:04:50.395Z,6.50
2023-03-27T00:05:22.441Z,6.70
2023-03-27T00:06:02.324Z,6.60
2023-03-27T00:06:34.447Z,6.70
2023-03-27T00:07:06.256Z,6.60
2023-03-27T00:07:41.117Z,6.70
2023-03-27T00:08:13.385Z,6.60
2023-03-27T00:08:46.521Z,6.60
2023-03-27T00:09:21.649Z,6.60
2023-03-27T00:09:53.563Z,6.60
2023-03-27T00:10:26.978Z,6.60
2023-03-27T00:11:00.848Z,6.60
2023-03-27T00:11:33.064Z,6.60
2023-03-27T00:12:05.865Z,6.60
2023-03-27T00:12:39.078Z,6.60
2023-03-27T00:13:10.922Z,6.60
2023-03-27T00:13:50.379Z,6.60
2023-03-27T00:14:24.238Z,6.60
2023-03-27T00:14:56.042Z,6.60
2023-03-27T00:15:27.861Z,6.60
2023-03-27T00:16:01.033Z,6.60
2023-03-27T00:16:32.872Z,6.60
2023-03-27T00:17:05.138Z,6.50
2023-03-27T00:17:38.070Z,6.50
2023-03-27T00:18:09.965Z,6.50
2023-03-27T00:18:41.967Z,6.50
2023-03-27T00:19:14.832Z,6.60
2023-03-27T00:19:46.644Z,6.60
2023-03-27T00:20:21.722Z,6.60
2023-03-27T00:20:55.059Z,6.60
2023-03-27T00:21:28.061Z,6.60
2023-03-27T00:22:01.046Z,6.60
2023-03-27T00:22:33.028Z,6.60
2023-03-27T00:23:06.129Z,6.60
2023-03-27T00:23:38.907Z,6.60
2023-03-27T00:24:10.954Z,6.60
2023-03-27T00:24:42.760Z,6.50
2023-03-27T00:25:16.969Z,6.60
2023-03-27T00:25:50.131Z,6.60
2023-03-27T00:26:22.088Z,6.60
2023-03-27T00:26:55.430Z,6.60
2023-03-27T00:27:27.213Z,6.60
2023-03-27T00:27:59.880Z,6.60
2023-03-27T00:28:32.757Z,6.60
2023-03-27T00:29:04.804Z,6.60
2023-03-27T00:29:36.987Z,6.60
2023-03-27T00:30:11.287Z,6.70
2023-03-27T00:30:43.557Z,6.70
2023-03-27T00:31:17.030Z,6.70
2023-03-27T00:31:49.896Z,6.70
2023-03-27T00:32:21.774Z,6.70
2023-03-27T00:32:55.255Z,6.70
2023-03-27T00:33:28.310Z,6.70
2023-03-27T00:34:01.336Z,6.70
2023-03-27T00:34:33.179Z,6.70
2023-03-27T00:35:07.240Z,6.70
2023-03-27T00:35:39.147Z,6.70
2023-03-27T00:36:11.601Z,6.70
2023-03-27T00:36:48.123Z,6.70
2023-03-27T00:37:20.014Z,6.70
2023-03-27T00:37:52.008Z,6.60
2023-03-27T00:38:24.378Z,6.60
2023-03-27T00:38:57.118Z,6.70
2023-03-27T00:39:29.432Z,6.70
2023-03-27T00:40:01.839Z,6.70
2023-03-27T00:40:34.947Z,6.70
2023-03-27T00:41:09.256Z,6.70
2023-03-27T00:41:41.188Z,6.70
2023-03-27T00:42:15.196Z,6.70
2023-03-27T00:42:48.818Z,6.80
2023-03-27T00:43:23.582Z,6.80
2023-03-27T00:43:58.065Z,6.80
2023-03-27T00:44:34.095Z,6.80
2023-03-27T00:45:07.002Z,6.80
2023-03-27T00:45:38.864Z,6.90
2023-03-27T00:46:34.871Z,6.90
2023-03-27T00:47:09.227Z,6.90
2023-03-27T00:47:41.152Z,6.90
2023-03-27T00:48:15.415Z,6.90
2023-03-27T00:48:51.337Z,6.90
2023-03-27T00:49:26.368Z,6.90
2023-03-27T00:50:00.590Z,6.80
2023-03-27T00:50:35.070Z,6.80
2023-03-27T00:51:07.653Z,6.80
2023-03-27T00:51:42.049Z,6.80
2023-03-27T00:52:16.679Z,6.80
2023-03-27T00:52:54.001Z,6.80
2023-03-27T00:53:28.396Z,6.80
2023-03-27T00:54:01.775Z,6.80
2023-03-27T00:54:38.640Z,6.80
2023-03-27T00:55:14.133Z,6.80
2023-03-27T00:55:50.038Z,6.80
2023-03-27T00:56:24.417Z,6.80
2023-03-27T00:56:59.984Z,6.80
2023-03-27T00:57:32.857Z,6.70
2023-03-27T00:58:09.726Z,6.70
2023-03-27T00:58:46.169Z,6.70
2023-03-27T00:59:22.339Z,6.70
2023-03-27T00:59:57.241Z,6.70
2023-03-27T01:00:29.350Z,6.70
2023-03-27T01:01:02.118Z,6.70
2023-03-27T01:01:34.164Z,6.70
2023-03-27T01:02:07.841Z,6.70
2023-03-27T01:02:42.554Z,6.70
2023-03-27T01:03:15.728Z,6.70
2023-03-27T01:03:49.183Z,6.70
2023-03-27T01:04:23.650Z,6.70
2023-03-27T01:04:56.661Z,6.70
2023-03-27T01:05:29.254Z,6.70
2023-03-27T01:06:02.971Z,6.70
2023-03-27T01:06:36.450Z,6.60
2023-03-27T01:07:11.039Z,6.60
2023-03-27T01:08:00.055Z,6.60
2023-03-27T01:08:37.590Z,6.60
2023-03-27T01:09:09.570Z,6.60
2023-03-27T01:09:41.719Z,6.60
2023-03-27T01:10:15.676Z,6.60
2023-03-27T01:10:56.255Z,6.60
2023-03-27T01:11:39.989Z,6.60
2023-03-27T01:12:29.049Z,6.60
2023-03-27T01:13:12.620Z,6.60
2023-03-27T01:14:02.622Z,6.60
2023-03-27T01:14:43.628Z,6.60
2023-03-27T01:15:28.238Z,6.70
2023-03-27T01:16:08.652Z,6.60
2023-03-27T01:16:50.309Z,6.70
2023-03-27T01:17:37.137Z,6.60
2023-03-27T01:18:31.492Z,6.60
2023-03-27T01:19:31.855Z,6.60
2023-03-27T01:20:46.950Z,6.60
2023-03-27T01:21:37.545Z,6.60
2023-03-27T01:22:42.794Z,6.60
2023-03-27T01:23:59.751Z,6.50
2023-03-27T01:25:08.920Z,6.50
2023-03-27T01:25:58.426Z,6.50
2023-03-27T01:27:02.119Z,6.50
2023-03-27T01:28:08.373Z,6.50
2023-03-27T01:28:51.429Z,6.40
2023-03-27T01:29:35.867Z,6.40
2023-03-27T01:30:15.907Z,6.40
2023-03-27T01:30:54.178Z,6.40
2023-03-27T01:31:40.272Z,6.40
2023-03-27T01:32:45.951Z,6.40
2023-03-27T01:33:38.547Z,6.40
2023-03-27T01:34:29.473Z,6.40
2023-03-27T01:35:24.897Z,6.40
2023-03-27T01:36:08.218Z,6.40
2023-03-27T01:37:10.636Z,6.30
2023-03-27T01:38:12.655Z,6.30
2023-03-27T01:39:17.155Z,6.30
2023-03-27T01:39:56.884Z,6.30
2023-03-27T01:40:33.728Z,6.30
2023-03-27T01:41:11.526Z,6.30
2023-03-27T01:41:52.117Z,6.30
2023-03-27T01:42:31.468Z,6.30
2023-03-27T01:43:07.246Z,6.30
2023-03-27T01:43:44.815Z,6.30
2023-03-27T01:44:24.423Z,6.30
2023-03-27T01:45:14.974Z,6.30
2023-03-27T01:45:51.172Z,6.30
2023-03-27T01:46:29.689Z,6.30
2023-03-27T01:47:07.575Z,6.30
2023-03-27T01:47:45.469Z,6.40
2023-03-27T01:48:22.758Z,6.30
2023-03-27T01:48:59.897Z,6.30
2023-03-27T01:49:39.912Z,6.40
2023-03-27T01:50:19.466Z,6.40
2023-03-27T01:50:55.811Z,6.40
2023-03-27T01:51:32.868Z,6.30
2023-03-27T01:52:08.328Z,6.30
2023-03-27T01:52:44.187Z,6.30
2023-03-27T01:53:20.459Z,6.20
2023-03-27T01:53:58.865Z,6.20
2023-03-27T01:54:35.023Z,6.10
2023-03-27T01:55:12.255Z,6.20
2023-03-27T01:55:49.007Z,6.10
2023-03-27T01:56:26.737Z,6.10
2023-03-27T01:57:04.378Z,6.10
2023-03-27T01:57:49.512Z,6.10
2023-03-27T01:58:28.031Z,6.10
2023-03-27T01:59:03.951Z,6.10
2023-03-27T01:59:39.968Z,6.00
2023-03-27T02:00:19.380Z,6.00
2023-03-27T02:00:56.425Z,6.00
2023-03-27T02:01:32.103Z,5.90
2023-03-27T02:02:10.703Z,5.90
2023-03-27T02:02:48.166Z,6.00
2023-03-27T02:03:23.917Z,6.00
2023-03-27T02:04:01.762Z,6.00
2023-03-27T02:04:39.948Z,6.00
2023-03-27T02:05:17.836Z,6.00
2023-03-27T02:05:56.213Z,6.00
2023-03-27T02:06:33.265Z,6.00
2023-03-27T02:07:12.317Z,6.00
2023-03-27T02:07:51.417Z,6.00
2023-03-27T02:08:27.346Z,5.90
2023-03-27T02:09:06.932Z,5.90
2023-03-27T02:09:44.256Z,5.90
2023-03-27T02:10:20.290Z,5.90
2023-03-27T02:10:57.961Z,5.90
2023-03-27T02:11:34.255Z,5.90
2023-03-27T02:12:11.820Z,5.90
2023-03-27T02:12:47.995Z,5.90
2023-03-27T02:13:25.250Z,5.90
2023-03-27T02:14:00.812Z,5.90
2023-03-27T02:14:38.589Z,5.90
2023-03-27T02:15:23.833Z,5.90
2023-03-27T02:16:00.762Z,5.90
2023-03-27T02:16:35.565Z,5.90
2023-03-27T02:17:10.471Z,5.90
2023-03-27T02:17:48.168Z,5.90
2023-03-27T02:18:26.332Z,5.90
2023-03-27T02:19:01.448Z,5.90
2023-03-27T02:19:37.885Z,5.90
2023-03-27T02:20:14.626Z,5.90
2023-03-27T02:20:46.694Z,6.00
2023-03-27T02:21:19.646Z,5.90
2023-03-27T02:21:51.503Z,6.00
2023-03-27T02:22:37.526Z,6.00
2023-03-27T02:23:11.675Z,5.90
2023-03-27T02:23:44.581Z,5.90
2023-03-27T02:24:18.696Z,5.90
2023-03-27T02:24:54.987Z,6.00
2023-03-27T02:25:30.982Z,6.00
2023-03-27T02:26:02.908Z,6.00
2023-03-27T02:26:35.866Z,6.00
2023-03-27T02:27:17.069Z,6.00
2023-03-27T02:27:53.150Z,6.00
2023-03-27T02:28:35.803Z,6.00
2023-03-27T02:29:26.889Z,6.10
2023-03-27T02:30:10.160Z,6.10
2023-03-27T02:31:05.376Z,6.00
2023-03-27T02:31:57.099Z,6.00
2023-03-27T02:32:40.679Z,6.00
2023-03-27T02:33:20.831Z,6.00
2023-03-27T02:34:09.537Z,6.00
2023-03-27T02:34:57.000Z,6.00
2023-03-27T02:35:38.535Z,6.00
2023-03-27T02:36:21.127Z,6.00
2023-03-27T02:36:58.791Z,6.00
2023-03-27T02:37:41.574Z,6.00
2023-03-27T02:38:19.683Z,5.90
2023-03-27T02:39:55.597Z,5.90
2023-03-27T02:40:41.749Z,5.90
2023-03-27T02:41:22.963Z,5.90
2023-03-27T02:42:03.132Z,5.90
2023-03-27T02:42:43.212Z,5.90
2023-03-27T02:43:18.329Z,5.90
2023-03-27T02:43:58.636Z,5.90
2023-03-27T02:44:35.750Z,5.90
2023-03-27T02:45:26.859Z,5.90
2023-03-27T02:46:06.410Z,5.90
2023-03-27T02:46:44.050Z,5.90
2023-03-27T02:47:23.636Z,5.90
2023-03-27T02:47:59.899Z,6.00
2023-03-27T02:48:35.381Z,6.00
2023-03-27T02:49:14.299Z,6.00
2023-03-27T02:49:51.174Z,6.00
2023-03-27T02:50:28.275Z,6.00
2023-03-27T02:51:05.270Z,6.00
2023-03-27T02:51:42.619Z,6.00
2023-03-27T02:52:20.254Z,6.00
2023-03-27T02:52:58.650Z,5.90
2023-03-27T02:53:36.714Z,5.90
2023-03-27T02:54:12.428Z,5.90
2023-03-27T02:54:51.285Z,5.90
2023-03-27T02:55:26.544Z,5.90
2023-03-27T02:56:01.530Z,5.90
2023-03-27T02:56:38.553Z,5.90
2023-03-27T02:57:15.019Z,5.90
2023-03-27T02:57:52.743Z,5.90
2023-03-27T02:58:32.099Z,5.90
2023-03-27T02:59:08.652Z,5.80
2023-03-27T02:59:45.212Z,5.80
2023-03-27T03:00:25.212Z,5.80
2023-03-27T03:00:59.312Z,5.70
2023-03-27T03:01:33.997Z,5.70
2023-03-27T03:02:10.505Z,5.70
2023-03-27T03:02:45.641Z,5.80
2023-03-27T03:03:27.941Z,5.70
2023-03-27T03:04:03.678Z,5.70
2023-03-27T03:04:41.872Z,5.70
2023-03-27T03:05:20.549Z,5.70
2023-03-27T03:05:52.368Z,5.70
2023-03-27T03:06:29.751Z,5.70
2023-03-27T03:07:04.289Z,5.70
2023-03-27T03:07:38.070Z,5.70
2023-03-27T03:08:10.343Z,5.70
2023-03-27T03:08:46.575Z,5.60
2023-03-27T03:09:19.036Z,5.60
2023-03-27T03:09:52.857Z,5.60
2023-03-27T03:10:27.198Z,5.60
2023-03-27T03:11:03.410Z,5.60
2023-03-27T03:11:37.158Z,5.60
2023-03-27T03:12:10.196Z,5.50
2023-03-27T03:12:42.468Z,5.50
2023-03-27T03:13:14.639Z,5.50
2023-03-27T03:13:47.404Z,5.50
2023-03-27T03:14:22.722Z,5.50
2023-03-27T03:14:54.555Z,5.50
2023-03-27T03:15:27.369Z,5.50
2023-03-27T03:15:59.251Z,5.50
2023-03-27T03:16:31.380Z,5.50
2023-03-27T03:17:04.192Z,5.50
2023-03-27T03:17:36.147Z,5.50
2023-03-27T03:18:08.888Z,5.40
2023-03-27T03:18:41.641Z,5.40
2023-03-27T03:19:13.540Z,5.40
2023-03-27T03:19:45.364Z,5.40
2023-03-27T03:20:18.828Z,5.40
2023-03-27T03:20:54.153Z,5.40
2023-03-27T03:21:26.063Z,5.50
2023-03-27T03:21:58.911Z,5.50
2023-03-27T03:22:31.438Z,5.50
2023-03-27T03:23:03.263Z,5.50
2023-03-27T03:23:35.076Z,5.50
2023-03-27T03:24:08.798Z,5.50
2023-03-27T03:24:42.327Z,5.50
2023-03-27T03:25:15.764Z,5.50
2023-03-27T03:25:50.311Z,5.50
2023-03-27T03:26:22.119Z,5.50
2023-03-27T03:26:53.948Z,5.50
2023-03-27T03:27:29.056Z,5.50
2023-03-27T03:28:01.946Z,5.50
2023-03-27T03:28:35.145Z,5.50
2023-03-27T03:29:07.961Z,5.40
2023-03-27T03:29:39.860Z,5.50
2023-03-27T03:30:17.055Z,5.50
2023-03-27T03:30:51.263Z,5.50
2023-03-27T03:31:23.179Z,5.50
2023-03-27T03:31:55.365Z,5.50
2023-03-27T03:32:28.199Z,5.40
2023-03-27T03:33:00.269Z,5.40
2023-03-27T03:33:32.580Z,5.40
2023-03-27T03:34:05.463Z,5.40
2023-03-27T03:34:37.251Z,5.40
2023-03-27T03:35:09.969Z,5.40
2023-03-27T03:35:43.105Z,5.40
2023-03-27T03:36:15.058Z,5.40
2023-03-27T03:36:49.079Z,5.40
2023-03-27T03:37:26.883Z,5.40
2023-03-27T03:38:00.841Z,5.40
2023-03-27T03:38:37.899Z,5.40
2023-03-27T03:39:11.245Z,5.40
2023-03-27T03:39:43.109Z,5.40
2023-03-27T03:40:17.807Z,5.40
2023-03-27T03:40:49.608Z,5.40
2023-03-27T03:41:21.433Z,5.40
2023-03-27T03:41:54.214Z,5.50
2023-03-27T03:42:26.013Z,5.50
2023-03-27T03:42:58.245Z,5.50
2023-03-27T03:43:31.999Z,5.50
2023-03-27T03:44:03.935Z,5.40
2023-03-27T03:44:37.093Z,5.40
2023-03-27T03:45:11.185Z,5.40
2023-03-27T03:45:42.994Z,5.30
2023-03-27T03:46:14.839Z,5.30
2023-03-27T03:46:47.659Z,5.30
2023-03-27T03:47:19.522Z,5.30
2023-03-27T03:47:51.391Z,5.30
2023-03-27T03:48:24.958Z,5.30
2023-03-27T03:48:58.955Z,5.30
2023-03-27T03:49:31.518Z,5.30
2023-03-27T03:50:03.698Z,5.30
2023-03-27T03:50:36.570Z,5.30
2023-03-27T03:51:08.471Z,5.30
2023-03-27T03:51:40.417Z,5.20
2023-03-27T03:52:13.272Z,5.20
2023-03-27T03:52:45.727Z,5.20
2023-03-27T03:53:19.743Z,5.20
2023-03-27T03:53:52.572Z,5.20
2023-03-27T03:54:24.387Z,5.20
2023-03-27T03:54:56.346Z,5.30
2023-03-27T03:55:29.555Z,5.30
2023-03-27T03:56:02.333Z,5.30
2023-03-27T03:56:34.285Z,5.30
2023-03-27T03:57:06.350Z,5.30
2023-03-27T03:57:39.365Z,5.30
2023-03-27T03:58:12.097Z,5.20
2023-03-27T03:58:44.064Z,5.20
2023-03-27T03:59:17.291Z,5.20
2023-03-27T03:59:49.154Z,5.20
2023-03-27T04:00:22.761Z,5.20
2023-03-27T04:00:55.833Z,5.20
2023-03-27T04:01:27.946Z,5.10
2023-03-27T04:02:00.413Z,5.10
2023-03-27T04:02:33.914Z,5.10
2023-03-27T04:03:07.472Z,5.10
2023-03-27T04:03:39.676Z,5.10
2023-03-27T04:04:12.594Z,5.10
2023-03-27T04:04:46.586Z,5.10
2023-03-27T04:05:18.558Z,5.10
2023-03-27T04:05:52.387Z,5.10
2023-03-27T04:06:25.435Z,5.10
2023-03-27T04:06:58.191Z,5.10
2023-03-27T04:07:31.811Z,5.10
2023-03-27T04:08:06.969Z,5.00
2023-03-27T04:08:39.254Z,5.00
2023-03-27T04:09:12.299Z,5.00
2023-03-27T04:09:44.112Z,5.00
2023-03-27T04:10:16.219Z,5.00
2023-03-27T04:10:50.367Z,5.10
2023-03-27T04:11:22.193Z,5.00
2023-03-27T04:11:53.992Z,5.00
2023-03-27T04:12:27.156Z,5.00
2023-03-27T04:12:59.554Z,5.00
2023-03-27T04:13:32.828Z,5.10
2023-03-27T04:14:04.693Z,5.10
2023-03-27T04:14:36.474Z,5.10
2023-03-27T04:15:10.058Z,5.00
2023-03-27T04:15:43.210Z,5.00
2023-03-27T04:16:15.491Z,5.00
2023-03-27T04:16:48.440Z,5.00
2023-03-27T04:17:20.723Z,5.00
2023-03-27T04:17:52.656Z,5.00
2023-03-27T04:18:32.485Z,5.00
2023-03-27T04:19:05.570Z,5.00
2023-03-27T04:19:37.472Z,5.00
2023-03-27T04:20:12.697Z,5.10
2023-03-27T04:20:49.462Z,5.00
2023-03-27T04:21:22.255Z,5.00
2023-03-27T04:21:56.124Z,5.00
2023-03-27T04:22:27.976Z,5.00
2023-03-27T04:23:02.320Z,5.10
2023-03-27T04:23:34.404Z,5.10
2023-03-27T04:24:08.211Z,5.10
2023-03-27T04:24:44.650Z,5.10
2023-03-27T04:25:18.375Z,5.10
2023-03-27T04:25:53.396Z,5.10
2023-03-27T04:26:27.200Z,5.20
2023-03-27T04:27:01.685Z,5.20
2023-03-27T04:27:35.579Z,5.20
2023-03-27T04:28:10.163Z,5.20
2023-03-27T04:28:42.075Z,5.20
2023-03-27T04:29:14.827Z,5.10
2023-03-27T04:29:47.347Z,5.10
2023-03-27T04:30:22.950Z,5.10
2023-03-27T04:30:55.846Z,5.10
2023-03-27T04:31:30.168Z,5.10
2023-03-27T04:32:02.770Z,5.10
2023-03-27T04:32:36.569Z,5.10
2023-03-27T04:33:08.457Z,5.10
2023-03-27T04:33:46.742Z,5.10
2023-03-27T04:34:20.381Z,5.10
2023-03-27T04:34:54.382Z,5.20
2023-03-27T04:35:27.358Z,5.20
2023-03-27T04:36:05.363Z,5.20
2023-03-27T04:36:39.548Z,5.20
2023-03-27T04:37:12.856Z,5.30
2023-03-27T04:37:45.147Z,5.30
2023-03-27T04:38:17.006Z,5.30
2023-03-27T04:38:50.032Z,5.30
2023-03-27T04:39:22.376Z,5.30
2023-03-27T04:39:54.203Z,5.30
2023-03-27T04:40:27.040Z,5.30
2023-03-27T04:41:00.262Z,5.30
2023-03-27T04:41:32.506Z,5.30
2023-03-27T04:42:05.568Z,5.30
2023-03-27T04:42:42.465Z,5.30
2023-03-27T04:43:16.054Z,5.30
2023-03-27T04:43:47.994Z,5.30
2023-03-27T04:44:19.885Z,5.30
2023-03-27T04:44:53.135Z,5.30
2023-03-27T04:45:25.676Z,5.30
2023-03-27T04:45:57.697Z,5.30
2023-03-27T04:46:30.614Z,5.30
2023-03-27T04:47:02.750Z,5.40
2023-03-27T04:47:37.703Z,5.30
2023-03-27T04:48:10.974Z,5.30
2023-03-27T04:48:42.996Z,5.30
2023-03-27T04:49:14.858Z,5.30
2023-03-27T04:49:50.694Z,5.20
2023-03-27T04:50:22.530Z,5.30
2023-03-27T04:50:54.568Z,5.20
2023-03-27T04:51:27.536Z,5.20
2023-03-27T04:51:59.325Z,5.20
2023-03-27T04:52:33.300Z,5.20
2023-03-27T04:53:06.018Z,5.20
2023-03-27T04:53:38.620Z,5.20
2023-03-27T04:54:10.481Z,5.20
2023-03-27T04:54:44.033Z,5.20
2023-03-27T04:55:16.705Z,5.20
2023-03-27T04:55:51.017Z,5.20
2023-03-27T04:56:25.289Z,5.20
2023-03-27T04:56:57.219Z,5.20
2023-03-27T04:57:30.933Z,5.10
2023-03-27T04:58:03.779Z,5.10
2023-03-27T04:58:37.467Z,5.10
2023-03-27T04:59:09.688Z,5.00
2023-03-27T04:59:42.828Z,5.00
2023-03-27T05:00:17.002Z,5.00
2023-03-27T05:00:50.723Z,5.00
2023-03-27T05:01:25.666Z,4.90
2023-03-27T05:01:58.385Z,5.00
2023-03-27T05:02:31.160Z,5.00
2023-03-27T05:03:04.106Z,5.00
2023-03-27T05:03:36.035Z,4.90
2023-03-27T05:04:07.965Z,4.90
2023-03-27T05:04:39.807Z,4.90
2023-03-27T05:05:13.840Z,5.00
2023-03-27T05:05:47.075Z,4.90
2023-03-27T05:06:19.006Z,4.90
2023-03-27T05:06:51.807Z,4.90
2023-03-27T05:07:24.197Z,4.90
2023-03-27T05:07:56.104Z,4.90
2023-03-27T05:08:28.984Z,5.00
2023-03-27T05:09:00.899Z,5.00
2023-03-27T05:09:32.723Z,5.00
2023-03-27T05:10:06.740Z,5.00
2023-03-27T05:10:38.696Z,5.00
2023-03-27T05:11:10.779Z,5.00
2023-03-27T05:11:49.456Z,4.90
2023-03-27T05:12:21.704Z,4.90
2023-03-27T05:12:55.762Z,5.00
2023-03-27T05:13:30.461Z,4.90
2023-03-27T05:14:02.266Z,4.90
2023-03-27T05:14:34.134Z,4.90
2023-03-27T05:15:09.237Z,4.90
2023-03-27T05:15:41.501Z,4.90
2023-03-27T05:16:13.375Z,4.90
2023-03-27T05:16:46.698Z,4.90
2023-03-27T05:17:18.559Z,4.90
2023-03-27T05:17:54.440Z,4.90
2023-03-27T05:18:27.441Z,4.90
2023-03-27T05:18:59.260Z,4.90
2023-03-27T05:19:31.081Z,4.90
2023-03-27T05:20:03.500Z,4.80
2023-03-27T05:20:36.919Z,4.80
2023-03-27T05:21:08.839Z,4.80
2023-03-27T05:21:41.031Z,4.80
2023-03-27T05:22:14.537Z,4.80
2023-03-27T05:22:46.483Z,4.80
2023-03-27T05:23:18.312Z,4.80
2023-03-27T05:23:51.548Z,4.80
2023-03-27T05:24:23.372Z,4.80
2023-03-27T05:24:55.202Z,4.80
2023-03-27T05:25:28.808Z,4.80
2023-03-27T05:26:01.090Z,4.80
2023-03-27T05:26:33.085Z,4.80
2023-03-27T05:27:07.280Z,4.70
2023-03-27T05:27:44.029Z,4.70
2023-03-27T05:28:16.812Z,4.60
2023-03-27T05:28:48.606Z,4.60
2023-03-27T05:29:20.611Z,4.60
2023-03-27T05:29:53.379Z,4.60
2023-03-27T05:30:26.652Z,4.60
2023-03-27T05:30:59.933Z,4.60
2023-03-27T05:31:32.806Z,4.60
2023-03-27T05:32:04.643Z,4.50
2023-03-27T05:32:37.972Z,4.60
2023-03-27T05:33:13.824Z,4.60
2023-03-27T05:33:45.752Z,4.60
2023-03-27T05:34:19.138Z,4.60
2023-03-27T05:34:50.973Z,4.60
2023-03-27T05:35:24.189Z,4.60
2023-03-27T05:35:58.615Z,4.60
2023-03-27T05:36:30.564Z,4.60
2023-03-27T05:37:05.635Z,4.60
2023-03-27T05:37:38.402Z,4.60
2023-03-27T05:38:10.323Z,4.60
2023-03-27T05:38:42.312Z,4.50
2023-03-27T05:39:16.728Z,4.60
2023-03-27T05:39:48.728Z,4.50
2023-03-27T05:40:24.899Z,4.50
2023-03-27T05:40:56.978Z,4.50
2023-03-27T05:41:29.871Z,4.50
2023-03-27T05:42:01.725Z,4.50
2023-03-27T05:42:34.980Z,4.50
2023-03-27T05:43:08.190Z,4.50
2023-03-27T05:43:39.990Z,4.50
2023-03-27T05:44:12.767Z,4.50
2023-03-27T05:44:44.666Z,4.50
2023-03-27T05:45:17.000Z,4.50
2023-03-27T05:45:49.819Z,4.50
2023-03-27T05:46:22.342Z,4.50
2023-03-27T05:46:54.238Z,4.60
2023-03-27T05:47:27.434Z,4.60
2023-03-27T05:48:01.134Z,4.50
2023-03-27T05:48:34.027Z,4.50
2023-03-27T05:49:05.895Z,4.50
2023-03-27T05:49:37.704Z,4.50
2023-03-27T05:50:10.519Z,4.50
2023-03-27T05:50:42.377Z,4.50
2023-03-27T05:51:15.593Z,4.50
2023-03-27T05:51:47.537Z,4.60
2023-03-27T05:52:20.331Z,4.60
2023-03-27T05:52:55.827Z,4.60
2023-03-27T05:53:29.083Z,4.60
2023-03-27T05:54:01.917Z,4.60
2023-03-27T05:54:33.704Z,4.50
2023-03-27T05:55:08.016Z,4.50
2023-03-27T05:55:40.904Z,4.50
2023-03-27T05:56:13.238Z,4.40
2023-03-27T05:56:45.133Z,4.40
2023-03-27T05:57:19.302Z,4.50
2023-03-27T05:57:52.531Z,4.40
2023-03-27T05:58:24.437Z,4.40
2023-03-27T05:58:57.211Z,4.40
2023-03-27T05:59:29.013Z,4.30
2023-03-27T06:00:00.826Z,4.30
2023-03-27T06:00:34.262Z,4.30
2023-03-27T06:01:06.172Z,4.30
2023-03-27T06:01:39.722Z,4.30
2023-03-27T06:02:12.537Z,4.30
2023-03-27T06:02:44.805Z,4.30
2023-03-27T06:03:17.074Z,4.30
2023-03-27T06:03:55.141Z,4.30
2023-03-27T06:04:28.441Z,4.30
2023-03-27T06:05:01.188Z,4.30
2023-03-27T06:05:34.408Z,4.30
2023-03-27T06:06:10.585Z,4.30
2023-03-27T06:06:43.404Z,4.20
2023-03-27T06:07:15.300Z,4.20
2023-03-27T06:07:48.604Z,4.30
2023-03-27T06:08:20.648Z,4.30
2023-03-27T06:08:53.516Z,4.30
2023-03-27T06:09:25.512Z,4.30
2023-03-27T06:09:57.347Z,4.30
2023-03-27T06:10:33.561Z,4.30
2023-03-27T06:11:09.627Z,4.20
2023-03-27T06:11:42.805Z,4.20
2023-03-27T06:12:16.096Z,4.20
2023-03-27T06:12:48.964Z,4.30
2023-03-27T06:13:24.066Z,4.20
2023-03-27T06:13:57.315Z,4.20
2023-03-27T06:14:31.348Z,4.20
2023-03-27T06:15:04.226Z,4.20
2023-03-27T06:15:38.995Z,4.20
2023-03-27T06:16:11.988Z,4.20
2023-03-27T06:16:44.530Z,4.20
2023-03-27T06:17:16.332Z,4.20
2023-03-27T06:17:49.262Z,4.20
2023-03-27T06:18:21.425Z,4.10
2023-03-27T06:18:54.442Z,4.10
2023-03-27T06:19:26.269Z,4.10
2023-03-27T06:19:58.299Z,4.00
2023-03-27T06:20:31.459Z,4.10
2023-03-27T06:21:03.508Z,4.10
2023-03-27T06:21:36.597Z,4.10
2023-03-27T06:22:08.951Z,4.10
2023-03-27T06:22:44.784Z,4.00
2023-03-27T06:23:17.798Z,4.00
2023-03-27T06:23:49.664Z,3.90
2023-03-27T06:24:21.447Z,3.90
2023-03-27T06:24:54.822Z,3.90
2023-03-27T06:25:28.293Z,3.90
2023-03-27T06:26:01.196Z,3.90
2023-03-27T06:26:33.886Z,3.90
2023-03-27T06:27:05.668Z,3.90
2023-03-27T06:27:39.122Z,3.80
2023-03-27T06:28:12.107Z,3.90
2023-03-27T06:28:46.491Z,3.90
2023-03-27T06:29:18.497Z,3.90
2023-03-27T06:29:50.321Z,3.90
2023-03-27T06:30:24.715Z,3.80
2023-03-27T06:30:57.641Z,3.80
2023-03-27T06:31:29.607Z,3.90
2023-03-27T06:32:02.537Z,3.90
2023-03-27T06:32:36.341Z,3.80
2023-03-27T06:33:09.494Z,3.80
2023-03-27T06:33:41.329Z,3.80
2023-03-27T06:34:14.880Z,3.80
2023-03-27T06:34:49.961Z,3.80
2023-03-27T06:35:21.848Z,3.80
2023-03-27T06:35:55.541Z,3.80
2023-03-27T06:36:28.777Z,3.90
2023-03-27T06:37:03.491Z,3.80
2023-03-27T06:37:37.147Z,3.90
2023-03-27T06:38:10.341Z,3.80
2023-03-27T06:38:42.383Z,3.90
2023-03-27T06:39:14.219Z,3.90
2023-03-27T06:39:50.594Z,3.90
2023-03-27T06:40:24.512Z,3.80
2023-03-27T06:40:57.422Z,3.90
2023-03-27T06:41:29.438Z,3.90
2023-03-27T06:42:01.259Z,3.80
2023-03-27T06:42:34.549Z,3.80
2023-03-27T06:43:08.057Z,3.70
2023-03-27T06:43:40.843Z,3.70
2023-03-27T06:44:13.996Z,3.70
2023-03-27T06:44:46.014Z,3.80
2023-03-27T06:45:19.008Z,3.70
2023-03-27T06:45:51.133Z,3.70
2023-03-27T06:46:27.552Z,3.60
2023-03-27T06:47:04.203Z,3.60
2023-03-27T06:47:44.404Z,3.60
2023-03-27T06:48:23.756Z,3.70
2023-03-27T06:48:55.718Z,3.60
2023-03-27T06:49:27.563Z,3.60
2023-03-27T06:50:00.562Z,3.60
2023-03-27T06:50:34.161Z,3.60
2023-03-27T06:51:07.506Z,3.60
2023-03-27T06:51:39.299Z,3.60
2023-03-27T06:52:11.100Z,3.60
2023-03-27T06:52:43.950Z,3.60
2023-03-27T06:53:26.618Z,3.60
2023-03-27T06:54:00.448Z,3.60
2023-03-27T06:54:32.252Z,3.50
2023-03-27T06:55:04.460Z,3.50
2023-03-27T06:55:37.242Z,3.50
2023-03-27T06:56:09.313Z,3.50
2023-03-27T06:56:41.166Z,3.50
2023-03-27T06:57:15.245Z,3.50
2023-03-27T06:57:49.575Z,3.50
2023-03-27T06:58:22.425Z,3.40
2023-03-27T06:58:54.262Z,3.40
2023-03-27T06:59:27.526Z,3.40
2023-03-27T07:00:02.321Z,3.40
2023-03-27T07:00:37.211Z,3.40
2023-03-27T07:01:10.061Z,3.40
2023-03-27T07:01:41.944Z,3.40
2023-03-27T07:02:13.786Z,3.40
2023-03-27T07:02:47.282Z,3.40
2023-03-27T07:03:21.139Z,3.40
2023-03-27T07:03:53.909Z,3.40
2023-03-27T07:04:25.727Z,3.40
2023-03-27T07:05:04.255Z,3.40
2023-03-27T07:05:40.490Z,3.40
2023-03-27T07:06:12.380Z,3.40
2023-03-27T07:06:44.206Z,3.40
2023-03-27T07:07:17.328Z,3.40
2023-03-27T07:07:49.628Z,3.40
2023-03-27T07:08:25.155Z,3.40
2023-03-27T07:08:57.557Z,3.40
2023-03-27T07:09:29.391Z,3.40
2023-03-27T07:10:02.169Z,3.40
2023-03-27T07:10:34.838Z,3.40
2023-03-27T07:11:12.165Z,3.40
2023-03-27T07:11:44.506Z,3.40
2023-03-27T07:12:16.305Z,3.40
2023-03-27T07:12:50.463Z,3.40
2023-03-27T07:13:22.253Z,3.40
2023-03-27T07:13:55.025Z,3.40
2023-03-27T07:14:28.210Z,3.40
2023-03-27T07:15:01.017Z,3.40
2023-03-27T07:15:32.845Z,3.40
2023-03-27T07:16:06.537Z,3.40
2023-03-27T07:16:38.411Z,3.40
2023-03-27T07:17:11.544Z,3.40
2023-03-27T07:17:48.882Z,3.40
2023-03-27T07:18:22.877Z,3.50
2023-03-27T07:18:54.816Z,3.50
2023-03-27T07:19:27.202Z,3.50
2023-03-27T07:19:59.984Z,3.50
2023-03-27T07:20:32.567Z,3.50
2023-03-27T07:21:05.890Z,3.50
2023-03-27T07:21:37.768Z,3.40
2023-03-27T07:22:09.565Z,3.40
2023-03-27T07:22:43.406Z,3.50
2023-03-27T07:23:15.403Z,3.50
2023-03-27T07:23:48.155Z,3.50
2023-03-27T07:24:19.956Z,3.50
2023-03-27T07:24:51.726Z,3.50
2023-03-27T07:25:24.612Z,3.50
2023-03-27T07:25:58.120Z,3.40
2023-03-27T07:26:31.082Z,3.40
2023-03-27T07:27:02.972Z,3.40
2023-03-27T07:27:35.787Z,3.40
2023-03-27T07:28:09.922Z,3.40
2023-03-27T07:28:44.515Z,3.40
2023-03-27T07:29:16.307Z,3.40
2023-03-27T07:29:49.465Z,3.40
2023-03-27T07:30:27.535Z,3.40
2023-03-27T07:30:59.576Z,3.40
2023-03-27T07:31:53.018Z,3.40
2023-03-27T07:32:36.207Z,3.40
2023-03-27T07:33:10.457Z,3.40
2023-03-27T07:33:42.522Z,3.50
2023-03-27T07:34:15.652Z,3.50
2023-03-27T07:34:47.732Z,3.60
2023-03-27T07:35:20.707Z,3.60
2023-03-27T07:35:52.662Z,3.60
2023-03-27T07:36:24.568Z,3.60
2023-03-27T07:36:57.872Z,3.60
2023-03-27T07:37:29.859Z,3.50
2023-03-27T07:38:03.999Z,3.50
2023-03-27T07:38:35.958Z,3.50
2023-03-27T07:39:09.049Z,3.40
2023-03-27T07:39:41.821Z,3.40
2023-03-27T07:40:13.767Z,3.40
2023-03-27T07:40:46.915Z,3.40
2023-03-27T07:41:18.778Z,3.40
2023-03-27T07:41:51.725Z,3.40
2023-03-27T07:42:24.264Z,3.40
2023-03-27T07:42:56.088Z,3.40
2023-03-27T07:43:28.824Z,3.40
2023-03-27T07:44:00.740Z,3.40
2023-03-27T07:44:33.490Z,3.40
2023-03-27T07:45:07.852Z,3.40
2023-03-27T07:45:41.839Z,3.40
2023-03-27T07:46:45.744Z,3.40